Time;durP1;ratioP1;P1;durP2;ratioP2;P2;SDS_P1;SDS_P2;PMS_P1;PMS_P2;Temp;Humidity;BMP_temperature;BMP_pressure;BME280_temperature;BME280_humidity;BME280_pressure;Samples;Min_cycle;Max_cycle;Signal;HPM_P1;HPM_P2
2023/05/04 00:01:07;;;;;;;1.20;1.10;;;;;;;;;;5157309;27;20097;-78
2023/05/04 00:03:32;;;;;;;3.70;1.27;;;;;;;;;;5157562;27;20389;-78
2023/05/04 00:05:57;;;;;;;4.15;1.15;;;;;;;;;;5157173;27;20030;-78
2023/05/04 00:08:23;;;;;;;1.20;1.10;;;;;;;;;;5157509;27;20038;-78
2023/05/04 00:10:48;;;;;;;1.10;1.00;;;;;;;;;;5121281;27;20030;-78
2023/05/04 00:13:14;;;;;;;1.60;1.10;;;;;;;;;;5157558;27;20058;-78
2023/05/04 00:15:39;;;;;;;2.75;1.50;;;;;;;;;;5157208;27;20027;-78
2023/05/04 00:18:04;;;;;;;1.33;1.23;;;;;;;;;;5138767;27;20422;-78
2023/05/04 00:20:30;;;;;;;2.63;1.23;;;;;;;;;;5157177;27;20038;-77
2023/05/04 00:22:55;;;;;;;1.23;1.13;;;;;;;;;;5157145;27;20533;-77
2023/05/04 00:25:20;;;;;;;7.18;1.20;;;;;;;;;;5138278;27;20025;-77
2023/05/04 00:27:46;;;;;;;2.55;1.10;;;;;;;;;;5157056;27;20119;-77
2023/05/04 00:30:11;;;;;;;1.10;1.00;;;;;;;;;;5156873;27;20065;-78
2023/05/04 00:32:37;;;;;;;1.77;1.30;;;;;;;;;;5156945;27;20330;-77
2023/05/04 00:35:02;;;;;;;2.65;1.13;;;;;;;;;;5156568;27;20027;-78
2023/05/04 00:37:28;;;;;;;1.42;1.20;;;;;;;;;;5156823;27;20026;-78
2023/05/04 00:39:53;;;;;;;2.30;1.20;;;;;;;;;;5137911;27;20031;-78
2023/05/04 00:42:18;;;;;;;1.95;1.20;;;;;;;;;;5137516;27;20061;-78
2023/05/04 00:44:44;;;;;;;1.63;1.35;;;;;;;;;;5138247;27;20389;-77
2023/05/04 00:47:10;;;;;;;1.35;1.17;;;;;;;;;;5156650;27;20034;-78
2023/05/04 00:49:36;;;;;;;3.08;1.30;;;;;;;;;;5156506;27;20052;-77
2023/05/04 00:52:02;;;;;;;2.42;1.40;;;;;;;;;;5156527;27;20038;-77
2023/05/04 00:54:28;;;;;;;3.28;1.20;;;;;;;;;;5120518;27;20461;-77
2023/05/04 00:56:53;;;;;;;1.13;1.02;;;;;;;;;;5156192;27;20031;-78
2023/05/04 00:59:19;;;;;;;2.08;1.15;;;;;;;;;;5133731;27;20485;-76
2023/05/04 01:01:45;;;;;;;1.30;1.20;;;;;;;;;;5134156;27;20094;-78
2023/05/04 01:04:10;;;;;;;1.40;1.25;;;;;;;;;;5135657;27;20114;-79
2023/05/04 01:06:57;;;;;;;1.92;1.20;;;;;;;;;;5135558;27;20033;-79
2023/05/04 01:09:38;;;;;;;2.35;1.40;;;;;;;;;;5134271;27;20011;-78
2023/05/04 01:12:35;;;;;;;1.20;1.10;;;;;;;;;;5133925;27;20020;-78
2023/05/04 01:15:01;;;;;;;1.27;1.00;;;;;;;;;;5134095;27;20043;-78
2023/05/04 01:17:27;;;;;;;2.08;1.10;;;;;;;;;;5133899;27;20023;-77
2023/05/04 01:19:52;;;;;;;1.48;1.20;;;;;;;;;;5133850;27;20130;-78
2023/05/04 01:22:19;;;;;;;1.98;1.30;;;;;;;;;;5134081;27;20031;-78
2023/05/04 01:24:44;;;;;;;1.42;1.30;;;;;;;;;;5133551;27;20030;-78
2023/05/04 01:27:16;;;;;;;1.20;1.10;;;;;;;;;;5135468;27;20027;-77
2023/05/04 01:29:59;;;;;;;2.97;1.20;;;;;;;;;;5133818;27;20026;-77
2023/05/04 01:32:28;;;;;;;1.45;1.35;;;;;;;;;;5133658;27;20027;-77
2023/05/04 01:34:54;;;;;;;1.40;1.30;;;;;;;;;;5116442;27;20019;-78
2023/05/04 01:37:20;;;;;;;2.80;1.40;;;;;;;;;;5133722;27;20035;-78
2023/05/04 01:39:45;;;;;;;1.95;1.20;;;;;;;;;;5133720;27;20033;-78
2023/05/04 01:42:10;;;;;;;1.00;1.00;;;;;;;;;;5134918;27;20031;-78
2023/05/04 01:44:36;;;;;;;1.95;1.10;;;;;;;;;;5116236;27;20031;-77
2023/05/04 01:47:02;;;;;;;1.88;1.10;;;;;;;;;;5135139;27;20027;-77
2023/05/04 01:49:27;;;;;;;2.17;1.40;;;;;;;;;;5133488;27;20469;-78
2023/05/04 01:51:53;;;;;;;1.63;1.10;;;;;;;;;;5133473;27;20031;-78
2023/05/04 01:54:18;;;;;;;1.73;1.10;;;;;;;;;;5133271;27;20119;-78
2023/05/04 01:56:43;;;;;;;1.67;1.20;;;;;;;;;;5133500;27;20035;-77
2023/05/04 01:59:09;;;;;;;1.98;1.45;;;;;;;;;;5136423;27;20076;-78
2023/05/04 02:01:35;;;;;;;1.38;1.27;;;;;;;;;;5155026;27;20524;-78
2023/05/04 02:04:00;;;;;;;1.85;1.30;;;;;;;;;;5155029;27;20401;-78
2023/05/04 02:06:26;;;;;;;1.52;1.17;;;;;;;;;;5119714;27;20140;-78
2023/05/04 02:08:52;;;;;;;1.90;1.13;;;;;;;;;;5155230;27;20026;-78
2023/05/04 02:11:17;;;;;;;1.33;1.08;;;;;;;;;;5135796;27;20042;-78
2023/05/04 02:13:42;;;;;;;1.33;1.23;;;;;;;;;;5155074;27;20062;-78
2023/05/04 02:16:08;;;;;;;0.90;0.90;;;;;;;;;;5154842;27;20132;-79
2023/05/04 02:18:33;;;;;;;1.42;1.20;;;;;;;;;;5136327;27;20023;-78
2023/05/04 02:20:58;;;;;;;1.42;1.10;;;;;;;;;;5155056;27;20022;-78
2023/05/04 02:23:24;;;;;;;1.58;1.25;;;;;;;;;;5136298;27;20477;-78
2023/05/04 02:25:50;;;;;;;1.88;1.40;;;;;;;;;;5154959;27;20525;-78
2023/05/04 02:28:16;;;;;;;1.45;1.20;;;;;;;;;;5154754;27;20022;-77
2023/05/04 02:30:41;;;;;;;2.42;1.08;;;;;;;;;;5154853;27;20422;-77
2023/05/04 02:33:07;;;;;;;1.10;1.00;;;;;;;;;;5118893;27;20030;-77
2023/05/04 02:35:32;;;;;;;1.73;1.20;;;;;;;;;;5136444;27;20027;-77
2023/05/04 02:37:57;;;;;;;2.95;1.30;;;;;;;;;;5154727;27;20594;-78
2023/05/04 02:40:23;;;;;;;2.08;1.00;;;;;;;;;;5136110;27;20023;-77
2023/05/04 02:42:48;;;;;;;1.23;1.00;;;;;;;;;;5136285;27;20381;-78
2023/05/04 02:45:14;;;;;;;2.53;1.23;;;;;;;;;;5154792;27;20114;-79
2023/05/04 02:47:39;;;;;;;4.25;1.30;;;;;;;;;;5135988;27;20497;-78
2023/05/04 02:50:05;;;;;;;1.20;1.08;;;;;;;;;;5154369;27;20067;-77
2023/05/04 02:52:30;;;;;;;2.10;1.42;;;;;;;;;;5135804;27;20035;-78
2023/05/04 02:54:56;;;;;;;3.72;1.30;;;;;;;;;;5136362;27;20071;-78
2023/05/04 02:57:21;;;;;;;1.58;1.10;;;;;;;;;;5119020;27;20430;-78
2023/05/04 02:59:46;;;;;;;1.55;1.27;;;;;;;;;;5135720;27;20051;-78
2023/05/04 03:02:12;;;;;;;1.08;1.00;;;;;;;;;;5154410;27;20100;-78
2023/05/04 03:04:37;;;;;;;3.13;1.13;;;;;;;;;;5154886;27;20034;-78
2023/05/04 03:07:03;;;;;;;1.65;1.10;;;;;;;;;;5154535;27;20113;-78
2023/05/04 03:09:28;;;;;;;1.10;1.05;;;;;;;;;;5154599;27;20054;-78
2023/05/04 03:11:53;;;;;;;1.55;1.30;;;;;;;;;;5101571;27;20108;-78
2023/05/04 03:14:19;;;;;;;1.00;1.00;;;;;;;;;;5154252;27;20113;-77
2023/05/04 03:16:44;;;;;;;1.23;1.13;;;;;;;;;;5135667;27;20079;-78
2023/05/04 03:19:10;;;;;;;1.98;1.20;;;;;;;;;;5154682;27;20105;-78
2023/05/04 03:21:35;;;;;;;0.93;0.93;;;;;;;;;;5154473;27;20019;-78
2023/05/04 03:24:01;;;;;;;1.00;1.00;;;;;;;;;;5157742;27;20133;-77
2023/05/04 03:26:26;;;;;;;1.33;1.10;;;;;;;;;;5139566;27;20075;-78
2023/05/04 03:28:52;;;;;;;1.48;1.10;;;;;;;;;;5157925;27;20042;-77
2023/05/04 03:31:17;;;;;;;1.27;1.00;;;;;;;;;;5122480;27;20469;-78
2023/05/04 03:33:42;;;;;;;1.90;1.10;;;;;;;;;;5158055;27;20031;-78
2023/05/04 03:36:08;;;;;;;1.30;1.20;;;;;;;;;;5122453;27;20023;-77
2023/05/04 03:38:33;;;;;;;3.13;1.23;;;;;;;;;;5157575;27;20030;-77
2023/05/04 03:40:59;;;;;;;2.35;1.27;;;;;;;;;;5157749;27;20019;-77
2023/05/04 03:43:24;;;;;;;1.33;1.10;;;;;;;;;;5122235;27;20096;-78
2023/05/04 03:45:49;;;;;;;1.30;1.20;;;;;;;;;;5157910;27;20403;-78
2023/05/04 03:48:15;;;;;;;2.13;1.27;;;;;;;;;;5139272;27;20037;-77
2023/05/04 03:50:40;;;;;;;1.13;1.02;;;;;;;;;;5138782;27;20062;-77
2023/05/04 03:53:06;;;;;;;2.17;1.33;;;;;;;;;;5157635;27;20027;-77
2023/05/04 03:55:31;;;;;;;1.80;1.10;;;;;;;;;;5139175;27;20440;-78
2023/05/04 03:57:56;;;;;;;1.75;1.42;;;;;;;;;;5139035;27;20114;-77
2023/05/04 04:00:22;;;;;;;2.75;1.00;;;;;;;;;;5156901;27;20129;-77
2023/05/04 04:02:47;;;;;;;1.73;1.20;;;;;;;;;;5157311;27;20473;-78
2023/05/04 04:05:13;;;;;;;1.50;1.20;;;;;;;;;;5138658;27;20034;-78
2023/05/04 04:07:38;;;;;;;1.02;1.00;;;;;;;;;;5157486;27;20027;-78
2023/05/04 04:10:04;;;;;;;1.60;1.10;;;;;;;;;;5139126;27;20031;-78
2023/05/04 04:12:30;;;;;;;1.35;1.20;;;;;;;;;;5157057;27;20034;-78
2023/05/04 04:14:55;;;;;;;11.98;1.30;;;;;;;;;;5157545;27;20067;-78
2023/05/04 04:17:20;;;;;;;1.20;1.10;;;;;;;;;;5138389;27;20499;-77
2023/05/04 04:19:46;;;;;;;1.83;1.38;;;;;;;;;;5138759;27;20483;-77
2023/05/04 04:22:11;;;;;;;1.95;1.10;;;;;;;;;;5156819;27;20067;-78
2023/05/04 04:24:37;;;;;;;1.45;1.10;;;;;;;;;;5157084;27;20091;-79
2023/05/04 04:27:02;;;;;;;1.77;1.20;;;;;;;;;;5138858;27;20122;-79
2023/05/04 04:29:27;;;;;;;1.60;1.40;;;;;;;;;;5157380;27;20023;-78
2023/05/04 04:31:53;;;;;;;1.48;1.20;;;;;;;;;;5138031;27;20026;-78
2023/05/04 04:34:18;;;;;;;1.10;1.00;;;;;;;;;;5155781;27;20130;-79
2023/05/04 04:36:44;;;;;;;2.10;1.35;;;;;;;;;;5156948;27;20071;-78
2023/05/04 04:39:09;;;;;;;1.90;1.20;;;;;;;;;;5138110;27;20027;-78
2023/05/04 04:41:35;;;;;;;1.65;1.10;;;;;;;;;;5138027;27;20023;-78
2023/05/04 04:44:01;;;;;;;1.67;1.45;;;;;;;;;;5138402;27;20065;-78
2023/05/04 04:46:26;;;;;;;2.30;1.20;;;;;;;;;;5157086;27;20030;-79
2023/05/04 04:48:53;;;;;;;1.33;1.23;;;;;;;;;;5138351;27;20022;-79
2023/05/04 04:51:18;;;;;;;2.47;1.30;;;;;;;;;;5156155;27;20382;-78
2023/05/04 04:53:43;;;;;;;3.03;1.77;;;;;;;;;;5156257;27;20038;-78
2023/05/04 04:56:09;;;;;;;1.50;1.00;;;;;;;;;;5137917;27;20053;-78
2023/05/04 04:58:34;;;;;;;1.98;1.40;;;;;;;;;;5156422;27;20487;-79
2023/05/04 05:01:04;;;;;;;1.40;1.27;;;;;;;;;;5137477;27;20456;-78
2023/05/04 05:03:30;;;;;;;3.17;1.20;;;;;;;;;;5137584;27;20429;-77
2023/05/04 05:05:56;;;;;;;2.58;1.33;;;;;;;;;;5156617;27;20030;-77
2023/05/04 05:08:21;;;;;;;1.60;1.20;;;;;;;;;;5137756;27;20030;-78
2023/05/04 05:10:47;;;;;;;1.65;1.30;;;;;;;;;;5155948;27;20102;-78
2023/05/04 05:13:12;;;;;;;1.40;1.20;;;;;;;;;;5137770;27;20026;-78
2023/05/04 05:15:38;;;;;;;2.65;1.67;;;;;;;;;;5156178;27;20493;-78
2023/05/04 05:18:03;;;;;;;1.95;1.20;;;;;;;;;;5155899;27;20099;-78
2023/05/04 05:20:28;;;;;;;2.33;1.38;;;;;;;;;;5155768;27;20079;-78
2023/05/04 05:22:54;;;;;;;2.88;1.40;;;;;;;;;;5155799;27;20027;-78
2023/05/04 05:25:19;;;;;;;1.95;1.45;;;;;;;;;;5120449;27;20106;-78
2023/05/04 05:27:45;;;;;;;1.50;1.30;;;;;;;;;;5155874;27;20039;-78
2023/05/04 05:30:10;;;;;;;2.88;1.40;;;;;;;;;;5155753;27;20033;-77
2023/05/04 05:32:36;;;;;;;1.60;1.40;;;;;;;;;;5137507;27;20039;-78
2023/05/04 05:35:03;;;;;;;3.10;1.80;;;;;;;;;;5155874;27;20023;-80
2023/05/04 05:37:29;;;;;;;4.05;1.95;;;;;;;;;;5137069;27;20026;-80
2023/05/04 05:39:54;;;;;;;5.20;2.10;;;;;;;;;;5155571;27;20022;-79
2023/05/04 05:42:20;;;;;;;3.08;1.88;;;;;;;;;;5156389;27;20368;-81
2023/05/04 05:44:45;;;;;;;4.00;1.65;;;;;;;;;;5136941;27;20038;-80
2023/05/04 05:47:10;;;;;;;5.40;2.20;;;;;;;;;;5155255;27;20041;-80
2023/05/04 05:49:36;;;;;;;9.40;2.15;;;;;;;;;;5155351;27;20473;-80
2023/05/04 05:52:01;;;;;;;5.85;2.28;;;;;;;;;;5137019;27;20543;-80
2023/05/04 05:54:29;;;;;;;4.13;1.70;;;;;;;;;;5136741;27;20031;-80
2023/05/04 05:56:54;;;;;;;6.57;2.67;;;;;;;;;;5136744;27;20473;-79
2023/05/04 05:59:20;;;;;;;3.28;2.05;;;;;;;;;;5155318;27;20030;-79
2023/05/04 06:01:45;;;;;;;3.85;1.80;;;;;;;;;;5136800;27;20029;-80
2023/05/04 06:04:10;;;;;;;7.05;2.25;;;;;;;;;;5119417;27;20022;-80
2023/05/04 06:06:36;;;;;;;5.38;1.80;;;;;;;;;;5136969;27;20027;-81
2023/05/04 06:09:01;;;;;;;3.67;1.70;;;;;;;;;;5136803;27;20106;-81
2023/05/04 06:11:27;;;;;;;3.15;2.00;;;;;;;;;;5154947;27;20453;-79
2023/05/04 06:13:52;;;;;;;3.47;1.75;;;;;;;;;;5136435;27;20030;-80
2023/05/04 06:16:18;;;;;;;3.65;2.13;;;;;;;;;;5136408;27;20027;-81
2023/05/04 06:18:43;;;;;;;4.97;2.42;;;;;;;;;;5136530;27;20022;-80
2023/05/04 06:21:09;;;;;;;5.55;2.05;;;;;;;;;;5119342;27;20029;-80
2023/05/04 06:23:35;;;;;;;4.38;1.90;;;;;;;;;;5154822;27;20026;-78
2023/05/04 06:26:00;;;;;;;3.13;1.70;;;;;;;;;;5136470;27;20034;-79
2023/05/04 06:28:26;;;;;;;5.95;2.05;;;;;;;;;;5136530;27;20366;-79
2023/05/04 06:30:51;;;;;;;5.60;2.13;;;;;;;;;;5154679;27;20423;-80
2023/05/04 06:33:17;;;;;;;3.08;1.70;;;;;;;;;;5155053;27;20031;-79
2023/05/04 06:35:43;;;;;;;8.93;1.70;;;;;;;;;;5154976;27;20414;-79
2023/05/04 06:38:08;;;;;;;4.63;1.55;;;;;;;;;;5136332;27;20393;-79
2023/05/04 06:40:33;;;;;;;3.53;1.60;;;;;;;;;;5136091;27;20110;-79
2023/05/04 06:42:59;;;;;;;4.57;2.20;;;;;;;;;;5134299;27;20030;-84
2023/05/04 06:45:24;;;;;;;8.65;1.58;;;;;;;;;;5135311;27;20065;-83
2023/05/04 06:47:51;;;;;;;3.50;1.83;;;;;;;;;;5154535;27;20026;-82
2023/05/04 06:50:16;;;;;;;6.40;2.15;;;;;;;;;;5154197;27;20087;-82
2023/05/04 06:52:43;;;;;;;7.00;2.10;;;;;;;;;;5118924;27;20034;-81
2023/05/04 06:55:09;;;;;;;2.83;1.67;;;;;;;;;;5155185;27;20030;-79
2023/05/04 06:57:34;;;;;;;4.03;1.90;;;;;;;;;;5156226;27;20031;-80
2023/05/04 07:00:00;;;;;;;5.57;1.80;;;;;;;;;;5158552;27;20103;-84
2023/05/04 07:02:25;;;;;;;4.40;2.00;;;;;;;;;;5140008;27;20042;-80
2023/05/04 07:04:51;;;;;;;6.72;2.10;;;;;;;;;;5158453;27;20058;-82
2023/05/04 07:07:17;;;;;;;6.40;1.85;;;;;;;;;;5158928;27;20504;-82
2023/05/04 07:09:42;;;;;;;5.80;1.83;;;;;;;;;;5141124;27;20610;-85
2023/05/04 07:12:08;;;;;;;4.05;2.10;;;;;;;;;;5123147;27;20033;-81
2023/05/04 07:14:34;;;;;;;18.77;4.53;;;;;;;;;;5159483;27;20438;-81
2023/05/04 07:16:59;;;;;;;19.75;3.20;;;;;;;;;;5141636;27;20510;-80
2023/05/04 07:19:26;;;;;;;13.32;3.47;;;;;;;;;;5141460;27;20039;-81
2023/05/04 07:21:51;;;;;;;30.15;3.67;;;;;;;;;;5139905;27;20026;-82
2023/05/04 07:24:17;;;;;;;11.43;2.65;;;;;;;;;;5158250;27;20086;-82
2023/05/04 07:26:43;;;;;;;11.00;3.10;;;;;;;;;;5140576;27;20386;-85
2023/05/04 07:29:08;;;;;;;11.18;2.70;;;;;;;;;;5105244;27;20026;-84
2023/05/04 07:31:34;;;;;;;13.38;3.17;;;;;;;;;;5140407;27;20046;-84
2023/05/04 07:34:00;;;;;;;11.25;2.63;;;;;;;;;;5114053;27;20122;-81
2023/05/04 07:36:26;;;;;;;9.55;2.92;;;;;;;;;;5145568;27;20072;-80
2023/05/04 07:38:52;;;;;;;11.40;2.40;;;;;;;;;;5160694;27;20030;-80
2023/05/04 07:41:18;;;;;;;7.05;2.47;;;;;;;;;;5140260;27;20446;-81
2023/05/04 07:43:44;;;;;;;5.40;2.58;;;;;;;;;;5139673;27;20031;-81
2023/05/04 07:46:09;;;;;;;6.38;2.50;;;;;;;;;;5121916;27;20075;-81
2023/05/04 07:48:35;;;;;;;6.65;2.10;;;;;;;;;;5138817;27;20121;-84
2023/05/04 07:51:00;;;;;;;6.80;2.20;;;;;;;;;;5138755;27;20033;-85
2023/05/04 07:53:26;;;;;;;5.38;2.00;;;;;;;;;;5139728;27;20027;-82
2023/05/04 07:55:56;;;;;;;4.53;2.17;;;;;;;;;;5141339;27;20027;-82
2023/05/04 07:58:22;;;;;;;8.40;2.20;;;;;;;;;;5159589;27;20037;-82
2023/05/04 08:00:48;;;;;;;8.38;2.03;;;;;;;;;;5159616;27;20051;-84
2023/05/04 08:03:13;;;;;;;7.38;1.95;;;;;;;;;;5138545;27;20026;-82
2023/05/04 08:05:39;;;;;;;4.63;2.10;;;;;;;;;;5157513;27;20167;-84
2023/05/04 08:08:04;;;;;;;7.03;2.30;;;;;;;;;;5138380;27;20031;-84
2023/05/04 08:10:29;;;;;;;7.20;2.10;;;;;;;;;;5156391;27;20537;-84
2023/05/04 08:12:55;;;;;;;5.93;1.77;;;;;;;;;;5157502;27;20026;-83
2023/05/04 08:15:21;;;;;;;4.10;1.90;;;;;;;;;;5118073;27;20087;-80
2023/05/04 08:17:46;;;;;;;4.80;2.20;;;;;;;;;;5118422;27;20110;-85
2023/05/04 08:20:11;;;;;;;11.52;2.33;;;;;;;;;;5156422;27;20370;-82
2023/05/04 08:22:37;;;;;;;5.72;2.13;;;;;;;;;;5157121;27;20030;-81
2023/05/04 08:25:03;;;;;;;8.10;2.20;;;;;;;;;;5121009;27;20027;-81
2023/05/04 08:27:29;;;;;;;9.55;2.03;;;;;;;;;;5121194;27;20443;-80
2023/05/04 08:29:56;;;;;;;8.85;2.20;;;;;;;;;;5156842;27;20083;-80
2023/05/04 08:32:22;;;;;;;17.52;3.25;;;;;;;;;;5139808;27;20022;-82
2023/05/04 08:34:47;;;;;;;7.57;2.85;;;;;;;;;;5140685;27;20445;-80
2023/05/04 08:37:13;;;;;;;6.47;2.33;;;;;;;;;;5138453;27;20046;-80
2023/05/04 08:39:38;;;;;;;9.98;1.88;;;;;;;;;;5141112;27;20433;-84
2023/05/04 08:42:03;;;;;;;7.45;1.80;;;;;;;;;;5157030;27;20031;-82
2023/05/04 08:44:30;;;;;;;5.95;2.38;;;;;;;;;;5138425;27;20038;-83
2023/05/04 08:46:56;;;;;;;7.78;2.10;;;;;;;;;;5157642;27;20469;-85
2023/05/04 08:49:22;;;;;;;9.45;2.10;;;;;;;;;;5105384;27;20041;-84
2023/05/04 08:51:49;;;;;;;5.80;1.88;;;;;;;;;;5138739;27;20383;-85
2023/05/04 08:54:15;;;;;;;4.32;1.83;;;;;;;;;;5138565;27;20076;-84
2023/05/04 08:56:41;;;;;;;8.93;2.05;;;;;;;;;;5157331;27;20023;-83
2023/05/04 08:59:08;;;;;;;3.78;1.92;;;;;;;;;;5138881;27;20029;-87
2023/05/04 09:01:35;;;;;;;4.03;1.95;;;;;;;;;;5139918;27;20015;-89
2023/05/04 09:04:02;;;;;;;5.82;2.00;;;;;;;;;;5146458;27;20037;-86
2023/05/04 09:06:27;;;;;;;6.20;2.17;;;;;;;;;;5110216;27;20029;-85
2023/05/04 09:08:53;;;;;;;16.02;1.80;;;;;;;;;;5140258;27;20027;-83
2023/05/04 09:11:18;;;;;;;3.42;1.85;;;;;;;;;;5139249;27;20035;-82
2023/05/04 09:13:44;;;;;;;3.15;1.70;;;;;;;;;;5155310;27;20078;-83
2023/05/04 09:16:09;;;;;;;5.57;1.63;;;;;;;;;;5140026;27;20022;-80
2023/05/04 09:18:44;;;;;;;2.67;1.63;;;;;;;;;;5140807;27;20035;-82
2023/05/04 09:21:10;;;;;;;4.05;1.83;;;;;;;;;;5157820;27;20029;-89
2023/05/04 09:23:49;;;;;;;7.63;2.10;;;;;;;;;;5119351;27;20023;-81
2023/05/04 09:26:14;;;;;;;4.05;1.58;;;;;;;;;;5139744;27;20022;-80
2023/05/04 09:28:40;;;;;;;3.50;1.92;;;;;;;;;;5140656;27;20500;-81
2023/05/04 09:31:06;;;;;;;2.90;1.65;;;;;;;;;;5139676;27;20114;-82
2023/05/04 09:33:32;;;;;;;4.30;1.70;;;;;;;;;;5138707;27;20077;-82
2023/05/04 09:36:19;;;;;;;2.25;2.00;;;;;;;;;;5155742;27;20026;-85
2023/05/04 09:38:45;;;;;;;2.40;1.80;;;;;;;;;;5137186;27;20019;-86
2023/05/04 09:41:10;;;;;;;6.15;2.10;;;;;;;;;;5155504;27;20171;-85
2023/05/04 09:43:37;;;;;;;2.45;1.75;;;;;;;;;;5137278;27;20035;-84
2023/05/04 09:46:03;;;;;;;3.45;1.58;;;;;;;;;;5137353;27;20022;-84
2023/05/04 09:48:28;;;;;;;3.63;1.80;;;;;;;;;;5137150;27;20504;-83
2023/05/04 09:50:55;;;;;;;4.47;1.65;;;;;;;;;;5155467;27;20027;-83
2023/05/04 09:53:30;;;;;;;1.75;1.63;;;;;;;;;;5137539;27;20090;-84
2023/05/04 09:56:40;;;;;;;2.22;1.60;;;;;;;;;;5119920;27;20045;-85
2023/05/04 09:59:07;;;;;;;7.68;1.60;;;;;;;;;;5136984;27;20163;-83
2023/05/04 10:01:33;;;;;;;2.55;1.90;;;;;;;;;;5136848;27;20018;-83
2023/05/04 10:03:58;;;;;;;3.10;1.88;;;;;;;;;;5119774;27;20055;-84
2023/05/04 10:06:24;;;;;;;2.63;1.67;;;;;;;;;;5136778;27;20362;-84
2023/05/04 10:08:50;;;;;;;2.33;1.58;;;;;;;;;;5137197;27;20033;-84
2023/05/04 10:11:18;;;;;;;2.22;1.50;;;;;;;;;;5136885;27;20067;-83
2023/05/04 10:13:48;;;;;;;2.65;2.00;;;;;;;;;;5155355;27;20152;-84
2023/05/04 10:16:41;;;;;;;5.82;1.73;;;;;;;;;;5156831;27;20019;-83
2023/05/04 10:19:15;;;;;;;2.40;1.50;;;;;;;;;;5155355;27;20048;-83
2023/05/04 10:21:52;;;;;;;4.88;2.13;;;;;;;;;;5155028;27;20026;-83
2023/05/04 10:24:49;;;;;;;3.45;1.30;;;;;;;;;;5136280;27;20049;-84
2023/05/04 10:27:21;;;;;;;4.75;1.60;;;;;;;;;;5136629;27;20026;-82
2023/05/04 10:29:48;;;;;;;2.65;1.60;;;;;;;;;;5138216;27;20030;-83
2023/05/04 10:32:18;;;;;;;3.35;1.42;;;;;;;;;;5137401;27;20117;-84
2023/05/04 10:34:44;;;;;;;2.53;1.60;;;;;;;;;;5141131;27;20026;-83
2023/05/04 10:37:16;;;;;;;4.22;1.63;;;;;;;;;;5123824;27;20108;-84
2023/05/04 10:39:49;;;;;;;2.20;1.70;;;;;;;;;;5159721;27;20046;-83
2023/05/04 10:42:15;;;;;;;3.03;1.50;;;;;;;;;;5140972;27;20023;-83
2023/05/04 10:44:54;;;;;;;4.22;1.40;;;;;;;;;;5140657;27;20493;-85
2023/05/04 10:47:34;;;;;;;3.63;1.40;;;;;;;;;;5141086;27;20031;-83
2023/05/04 10:50:07;;;;;;;4.03;1.60;;;;;;;;;;5140581;27;20029;-82
2023/05/04 10:52:50;;;;;;;4.75;1.75;;;;;;;;;;5159400;27;20027;-83
2023/05/04 10:55:16;;;;;;;4.53;1.40;;;;;;;;;;5141056;27;20387;-85
2023/05/04 10:57:50;;;;;;;15.68;6.35;;;;;;;;;;5123269;27;20029;-84
2023/05/04 11:00:16;;;;;;;;;;;;;;;;;;5140810;27;20054;-83
2023/05/04 11:02:41;;;;;;;20.00;10.52;;;;;;;;;;5140341;27;19915;-83
2023/05/04 11:05:08;;;;;;;29.63;13.05;;;;;;;;;;5140121;27;20027;-83
2023/05/04 11:07:37;;;;;;;38.28;16.35;;;;;;;;;;5158694;27;20026;-83
2023/05/04 11:10:04;;;;;;;33.72;17.05;;;;;;;;;;5158863;27;20123;-83
2023/05/04 11:12:31;;;;;;;41.90;18.45;;;;;;;;;;5141564;27;20027;-83
2023/05/04 11:15:06;;;;;;;40.67;18.30;;;;;;;;;;5124457;27;20469;-84
2023/05/04 11:17:32;;;;;;;41.10;19.05;;;;;;;;;;5140614;27;20046;-84
2023/05/04 11:19:57;;;;;;;33.88;17.25;;;;;;;;;;5140271;27;20102;-83
2023/05/04 11:22:23;;;;;;;38.40;18.88;;;;;;;;;;5141029;27;20426;-83
2023/05/04 11:24:48;;;;;;;38.40;18.63;;;;;;;;;;5140991;27;20046;-85
2023/05/04 11:27:24;;;;;;;35.85;18.55;;;;;;;;;;5158572;27;20027;-84
2023/05/04 11:30:00;;;;;;;36.78;17.65;;;;;;;;;;5139612;27;20480;-84
2023/05/04 11:32:36;;;;;;;38.17;19.85;;;;;;;;;;5139603;27;20029;-85
2023/05/04 11:35:02;;;;;;;39.65;18.23;;;;;;;;;;5139944;27;20415;-85
2023/05/04 11:37:28;;;;;;;38.60;17.52;;;;;;;;;;5139880;27;20101;-85
2023/05/04 11:39:55;;;;;;;36.88;17.23;;;;;;;;;;5139379;27;20443;-85
2023/05/04 11:42:21;;;;;;;37.55;18.05;;;;;;;;;;5123070;27;20026;-85
2023/05/04 11:44:46;;;;;;;35.33;17.13;;;;;;;;;;5139193;27;20031;-85
2023/05/04 11:47:12;;;;;;;38.63;17.55;;;;;;;;;;5140042;27;20031;-85
2023/05/04 11:49:38;;;;;;;34.55;17.77;;;;;;;;;;5141264;27;20546;-85
2023/05/04 11:52:07;;;;;;;34.00;17.38;;;;;;;;;;5139611;27;20023;-85
2023/05/04 11:54:33;;;;;;;31.67;17.65;;;;;;;;;;5158163;27;20030;-85
2023/05/04 11:57:00;;;;;;;35.00;16.67;;;;;;;;;;5139884;27;20030;-85
2023/05/04 11:59:25;;;;;;;34.17;17.15;;;;;;;;;;5139946;27;20046;-84
2023/05/04 12:01:51;;;;;;;30.40;15.52;;;;;;;;;;5139188;27;20370;-85
2023/05/04 12:04:16;;;;;;;30.50;16.15;;;;;;;;;;5122276;27;20039;-85
2023/05/04 12:06:42;;;;;;;32.28;15.77;;;;;;;;;;5138912;27;20034;-85
2023/05/04 12:09:07;;;;;;;29.52;15.05;;;;;;;;;;5139159;27;20035;-85
2023/05/04 12:11:33;;;;;;;34.20;15.25;;;;;;;;;;5139129;27;20492;-85
2023/05/04 12:14:04;;;;;;;30.20;13.65;;;;;;;;;;5157563;27;20092;-85
2023/05/04 12:16:29;;;;;;;27.38;14.48;;;;;;;;;;5138954;27;20019;-85
2023/05/04 12:19:03;;;;;;;29.88;14.43;;;;;;;;;;5121650;27;20026;-86
2023/05/04 12:21:29;;;;;;;31.23;14.65;;;;;;;;;;5157480;27;20109;-85
2023/05/04 12:23:56;;;;;;;28.42;14.70;;;;;;;;;;5139060;27;20156;-85
2023/05/04 12:26:22;;;;;;;28.55;14.13;;;;;;;;;;5121951;27;20034;-86
2023/05/04 12:28:47;;;;;;;25.65;14.07;;;;;;;;;;5138761;27;20065;-86
2023/05/04 12:31:12;;;;;;;24.05;13.00;;;;;;;;;;5157023;27;20054;-86
2023/05/04 12:33:38;;;;;;;24.90;13.35;;;;;;;;;;5157368;27;20476;-87
2023/05/04 12:36:04;;;;;;;26.98;13.25;;;;;;;;;;5138761;27;20023;-87
2023/05/04 12:38:30;;;;;;;26.30;13.50;;;;;;;;;;5138686;27;20031;-87
2023/05/04 12:41:02;;;;;;;29.05;13.52;;;;;;;;;;5104216;27;20461;-86
2023/05/04 12:43:27;;;;;;;28.13;14.07;;;;;;;;;;5139903;27;20055;-86
2023/05/04 12:45:52;;;;;;;24.52;12.90;;;;;;;;;;5138331;27;20035;-86
2023/05/04 12:48:21;;;;;;;24.30;12.30;;;;;;;;;;5139019;27;20041;-86
2023/05/04 12:50:48;;;;;;;22.33;11.85;;;;;;;;;;5139620;27;20023;-87
2023/05/04 12:53:13;;;;;;;28.23;12.10;;;;;;;;;;5138962;27;20022;-86
2023/05/04 12:55:39;;;;;;;24.23;12.43;;;;;;;;;;5156125;27;20036;-85
2023/05/04 12:58:05;;;;;;;21.38;11.10;;;;;;;;;;5121364;27;20136;-85
2023/05/04 13:00:34;;;;;;;26.27;12.82;;;;;;;;;;5138640;27;20046;-87
2023/05/04 13:03:00;;;;;;;29.55;11.45;;;;;;;;;;5156706;27;20383;-84
2023/05/04 13:05:25;;;;;;;22.13;12.48;;;;;;;;;;5137760;27;20467;-86
2023/05/04 13:07:52;;;;;;;19.83;10.55;;;;;;;;;;5138243;27;20036;-85
2023/05/04 13:10:18;;;;;;;21.10;11.20;;;;;;;;;;5138759;27;20019;-84
2023/05/04 13:12:44;;;;;;;22.48;11.07;;;;;;;;;;5138272;27;20026;-84
2023/05/04 13:15:09;;;;;;;21.85;10.65;;;;;;;;;;5137828;27;20027;-84
2023/05/04 13:17:35;;;;;;;22.10;10.43;;;;;;;;;;5137721;27;20492;-83
2023/05/04 13:20:01;;;;;;;20.10;9.75;;;;;;;;;;5156385;27;20034;-83
2023/05/04 13:22:29;;;;;;;18.02;9.60;;;;;;;;;;5138633;27;20018;-83
2023/05/04 13:24:54;;;;;;;16.58;8.88;;;;;;;;;;5155809;27;20034;-83
2023/05/04 13:27:20;;;;;;;14.55;8.77;;;;;;;;;;5137404;27;20037;-83
2023/05/04 13:29:45;;;;;;;17.95;8.73;;;;;;;;;;5156423;27;20429;-83
2023/05/04 13:32:11;;;;;;;15.30;7.85;;;;;;;;;;5136570;27;20043;-83
2023/05/04 13:34:36;;;;;;;20.42;8.07;;;;;;;;;;5138479;27;20485;-83
2023/05/04 13:37:01;;;;;;;13.95;6.88;;;;;;;;;;5105381;27;20050;-83
2023/05/04 13:39:27;;;;;;;12.80;7.28;;;;;;;;;;5157961;27;20517;-81
2023/05/04 13:41:52;;;;;;;15.10;6.90;;;;;;;;;;5157747;27;20027;-82
2023/05/04 13:44:18;;;;;;;12.52;6.32;;;;;;;;;;5157983;27;20027;-82
2023/05/04 13:46:43;;;;;;;9.57;5.85;;;;;;;;;;5138557;27;20065;-82
2023/05/04 13:49:09;;;;;;;10.27;5.78;;;;;;;;;;5138806;27;20117;-82
2023/05/04 13:51:36;;;;;;;10.10;5.75;;;;;;;;;;5156508;27;20030;-82
2023/05/04 13:54:02;;;;;;;11.02;5.50;;;;;;;;;;5137938;27;20523;-81
2023/05/04 13:56:28;;;;;;;10.88;5.40;;;;;;;;;;5156752;27;20030;-80
2023/05/04 13:58:54;;;;;;;8.35;4.95;;;;;;;;;;5117362;27;20176;-80
2023/05/04 14:01:19;;;;;;;11.57;5.65;;;;;;;;;;5118962;27;20046;-80
2023/05/04 14:03:45;;;;;;;8.90;4.97;;;;;;;;;;5102795;27;20035;-82
2023/05/04 14:06:13;;;;;;;8.32;4.45;;;;;;;;;;5123747;27;20030;-82
2023/05/04 14:08:40;;;;;;;6.68;4.03;;;;;;;;;;5157374;27;20039;-83
2023/05/04 14:11:05;;;;;;;6.10;3.97;;;;;;;;;;5122188;27;20116;-83
2023/05/04 14:13:30;;;;;;;6.32;3.83;;;;;;;;;;5117812;28;20039;-83
2023/05/04 14:15:57;;;;;;;9.20;3.72;;;;;;;;;;5117083;27;20031;-81
2023/05/04 14:18:23;;;;;;;6.82;3.88;;;;;;;;;;5128121;27;20022;-81
2023/05/04 14:20:48;;;;;;;6.60;3.70;;;;;;;;;;5158632;27;20026;-81
2023/05/04 14:23:13;;;;;;;7.20;3.42;;;;;;;;;;5158401;27;20061;-80
2023/05/04 14:25:41;;;;;;;5.47;3.10;;;;;;;;;;5140205;27;20473;-81
2023/05/04 14:28:06;;;;;;;5.32;3.50;;;;;;;;;;5159834;27;20022;-80
2023/05/04 14:30:32;;;;;;;5.65;3.42;;;;;;;;;;5121683;27;20064;-80
2023/05/04 14:32:58;;;;;;;6.30;3.65;;;;;;;;;;5158166;27;20038;-80
2023/05/04 14:35:23;;;;;;;7.90;3.53;;;;;;;;;;5157873;27;20099;-80